sensor_id;sensor_type;location;lat;lon;timestamp;temperature;humidity
21672;DHT22;10997;52.242;8.168;2022-07-04T00:03:07;15.40;99.90
21672;DHT22;10997;52.242;8.168;2022-07-04T00:08:08;15.30;99.90
21672;DHT22;10997;52.242;8.168;2022-07-04T00:13:09;15.20;99.90
21672;DHT22;10997;52.242;8.168;2022-07-04T00:18:09;15.10;99.90
21672;DHT22;10997;52.242;8.168;2022-07-04T00:23:10;15.00;99.90
21672;DHT22;10997;52.242;8.168;2022-07-04T00:28:11;14.90;99.90
21672;DHT22;10997;52.242;8.168;2022-07-04T00:33:12;14.90;99.90
21672;DHT22;10997;52.242;8.168;2022-07-04T00:38:14;14.80;99.90
21672;DHT22;10997;52.242;8.168;2022-07-04T00:43:21;14.80;99.90
21672;DHT22;10997;52.242;8.168;2022-07-04T00:48:23;14.70;99.90
21672;DHT22;10997;52.242;8.168;2022-07-04T00:53:24;14.70;99.90
21672;DHT22;10997;52.242;8.168;2022-07-04T00:58:25;14.70;99.90
21672;DHT22;10997;52.242;8.168;2022-07-04T01:03:25;14.70;99.90
21672;DHT22;10997;52.242;8.168;2022-07-04T01:08:26;14.70;99.90
21672;DHT22;10997;52.242;8.168;2022-07-04T01:13:27;14.70;99.90
21672;DHT22;10997;52.242;8.168;2022-07-04T01:18:28;14.60;99.90
21672;DHT22;10997;52.242;8.168;2022-07-04T01:23:32;14.60;99.90
21672;DHT22;10997;52.242;8.168;2022-07-04T01:28:36;14.60;99.90
21672;DHT22;10997;52.242;8.168;2022-07-04T01:33:37;14.50;99.90
21672;DHT22;10997;52.242;8.168;2022-07-04T01:38:39;14.40;99.90
21672;DHT22;10997;52.242;8.168;2022-07-04T01:43:39;14.30;99.90
21672;DHT22;10997;52.242;8.168;2022-07-04T01:48:40;14.30;99.90
21672;DHT22;10997;52.242;8.168;2022-07-04T01:53:41;14.20;99.90
21672;DHT22;10997;52.242;8.168;2022-07-04T01:58:41;14.10;99.90
21672;DHT22;10997;52.242;8.168;2022-07-04T02:03:42;14.10;99.90
21672;DHT22;10997;52.242;8.168;2022-07-04T02:08:43;14.00;99.90
21672;DHT22;10997;52.242;8.168;2022-07-04T02:14:02;14.10;99.90
21672;DHT22;10997;52.242;8.168;2022-07-04T02:19:03;14.10;99.90
21672;DHT22;10997;52.242;8.168;2022-07-04T02:24:04;14.00;99.90
21672;DHT22;10997;52.242;8.168;2022-07-04T02:29:05;14.00;99.90
21672;DHT22;10997;52.242;8.168;2022-07-04T02:34:05;14.00;99.90
21672;DHT22;10997;52.242;8.168;2022-07-04T02:39:06;13.90;99.90
21672;DHT22;10997;52.242;8.168;2022-07-04T02:44:07;13.80;99.90
21672;DHT22;10997;52.242;8.168;2022-07-04T02:49:08;13.70;99.90
21672;DHT22;10997;52.242;8.168;2022-07-04T02:54:09;13.70;99.90
21672;DHT22;10997;52.242;8.168;2022-07-04T02:59:10;13.70;99.90
21672;DHT22;10997;52.242;8.168;2022-07-04T03:04:13;13.80;99.90
21672;DHT22;10997;52.242;8.168;2022-07-04T03:09:14;13.80;99.90
21672;DHT22;10997;52.242;8.168;2022-07-04T03:14:15;13.70;99.90
21672;DHT22;10997;52.242;8.168;2022-07-04T03:19:15;13.70;99.90
21672;DHT22;10997;52.242;8.168;2022-07-04T03:24:23;13.70;99.90
21672;DHT22;10997;52.242;8.168;2022-07-04T03:29:24;13.70;99.90
21672;DHT22;10997;52.242;8.168;2022-07-04T03:34:26;13.70;99.90
21672;DHT22;10997;52.242;8.168;2022-07-04T03:39:27;13.70;99.90
21672;DHT22;10997;52.242;8.168;2022-07-04T03:44:27;13.70;99.90
21672;DHT22;10997;52.242;8.168;2022-07-04T03:49:28;13.70;99.90
21672;DHT22;10997;52.242;8.168;2022-07-04T03:54:29;13.70;99.90
21672;DHT22;10997;52.242;8.168;2022-07-04T03:59:30;13.80;99.90
21672;DHT22;10997;52.242;8.168;2022-07-04T04:04:30;13.80;99.90
21672;DHT22;10997;52.242;8.168;2022-07-04T04:09:49;13.90;99.90
21672;DHT22;10997;52.242;8.168;2022-07-04T04:14:50;13.90;99.90
21672;DHT22;10997;52.242;8.168;2022-07-04T04:19:51;14.00;99.90
21672;DHT22;10997;52.242;8.168;2022-07-04T04:24:51;14.10;99.90
21672;DHT22;10997;52.242;8.168;2022-07-04T04:29:52;14.30;99.90
21672;DHT22;10997;52.242;8.168;2022-07-04T04:34:53;14.40;99.90
21672;DHT22;10997;52.242;8.168;2022-07-04T04:39:54;14.50;99.90
21672;DHT22;10997;52.242;8.168;2022-07-04T04:45:00;14.70;99.90
21672;DHT22;10997;52.242;8.168;2022-07-04T04:50:01;14.80;99.90
21672;DHT22;10997;52.242;8.168;2022-07-04T04:55:02;15.00;99.90
21672;DHT22;10997;52.242;8.168;2022-07-04T05:00:03;15.20;99.90
21672;DHT22;10997;52.242;8.168;2022-07-04T05:05:05;15.30;99.90
21672;DHT22;10997;52.242;8.168;2022-07-04T05:10:07;15.50;99.90
21672;DHT22;10997;52.242;8.168;2022-07-04T05:15:08;15.60;99.90
21672;DHT22;10997;52.242;8.168;2022-07-04T05:20:10;15.60;99.90
21672;DHT22;10997;52.242;8.168;2022-07-04T05:25:11;15.80;99.90
21672;DHT22;10997;52.242;8.168;2022-07-04T05:30:11;15.90;99.90
21672;DHT22;10997;52.242;8.168;2022-07-04T05:35:12;16.10;99.90
21672;DHT22;10997;52.242;8.168;2022-07-04T05:40:13;16.20;99.90
21672;DHT22;10997;52.242;8.168;2022-07-04T05:45:14;16.60;99.90
21672;DHT22;10997;52.242;8.168;2022-07-04T05:50:15;16.50;99.90
21672;DHT22;10997;52.242;8.168;2022-07-04T05:55:15;16.60;99.90
21672;DHT22;10997;52.242;8.168;2022-07-04T06:00:16;16.70;99.90
21672;DHT22;10997;52.242;8.168;2022-07-04T06:05:17;16.60;99.90
21672;DHT22;10997;52.242;8.168;2022-07-04T06:10:19;16.60;99.90
21672;DHT22;10997;52.242;8.168;2022-07-04T06:15:20;16.80;99.90
21672;DHT22;10997;52.242;8.168;2022-07-04T06:20:21;16.90;99.90
21672;DHT22;10997;52.242;8.168;2022-07-04T06:25:21;17.20;99.90
21672;DHT22;10997;52.242;8.168;2022-07-04T06:30:22;17.30;99.90
21672;DHT22;10997;52.242;8.168;2022-07-04T06:35:25;17.50;99.90
21672;DHT22;10997;52.242;8.168;2022-07-04T06:40:44;17.60;99.90
21672;DHT22;10997;52.242;8.168;2022-07-04T06:45:46;17.60;99.90
21672;DHT22;10997;52.242;8.168;2022-07-04T06:50:46;17.70;99.90
21672;DHT22;10997;52.242;8.168;2022-07-04T06:55:47;17.80;99.90
21672;DHT22;10997;52.242;8.168;2022-07-04T07:00:48;17.90;99.90
21672;DHT22;10997;52.242;8.168;2022-07-04T07:05:49;18.00;99.90
21672;DHT22;10997;52.242;8.168;2022-07-04T07:10:50;18.30;99.90
21672;DHT22;10997;52.242;8.168;2022-07-04T07:15:51;18.30;99.90
21672;DHT22;10997;52.242;8.168;2022-07-04T07:20:51;18.40;99.90
21672;DHT22;10997;52.242;8.168;2022-07-04T07:25:52;18.50;99.90
21672;DHT22;10997;52.242;8.168;2022-07-04T07:30:53;18.70;99.90
21672;DHT22;10997;52.242;8.168;2022-07-04T07:35:53;18.80;99.90
21672;DHT22;10997;52.242;8.168;2022-07-04T07:40:54;19.00;99.90
21672;DHT22;10997;52.242;8.168;2022-07-04T07:45:56;19.00;99.90
21672;DHT22;10997;52.242;8.168;2022-07-04T07:50:56;19.00;99.90
21672;DHT22;10997;52.242;8.168;2022-07-04T07:55:57;19.10;99.90
21672;DHT22;10997;52.242;8.168;2022-07-04T08:00:59;19.20;99.90
21672;DHT22;10997;52.242;8.168;2022-07-04T08:06:02;19.50;99.90
21672;DHT22;10997;52.242;8.168;2022-07-04T08:11:04;19.80;99.90
21672;DHT22;10997;52.242;8.168;2022-07-04T08:16:06;19.70;99.90
21672;DHT22;10997;52.242;8.168;2022-07-04T08:21:15;19.80;99.90
21672;DHT22;10997;52.242;8.168;2022-07-04T08:26:16;20.10;99.90
21672;DHT22;10997;52.242;8.168;2022-07-04T08:31:18;20.00;99.90
21672;DHT22;10997;52.242;8.168;2022-07-04T08:36:19;20.20;99.90
21672;DHT22;10997;52.242;8.168;2022-07-04T08:41:20;20.40;99.90
21672;DHT22;10997;52.242;8.168;2022-07-04T08:46:25;20.40;99.90
21672;DHT22;10997;52.242;8.168;2022-07-04T08:51:37;20.50;99.90
21672;DHT22;10997;52.242;8.168;2022-07-04T08:56:42;20.30;99.90
21672;DHT22;10997;52.242;8.168;2022-07-04T09:02:01;20.60;99.90
21672;DHT22;10997;52.242;8.168;2022-07-04T09:07:03;21.10;99.90
21672;DHT22;10997;52.242;8.168;2022-07-04T09:12:04;21.40;99.90
21672;DHT22;10997;52.242;8.168;2022-07-04T09:17:05;21.60;99.90
21672;DHT22;10997;52.242;8.168;2022-07-04T09:22:13;21.80;99.90
21672;DHT22;10997;52.242;8.168;2022-07-04T09:27:37;21.90;99.90
21672;DHT22;10997;52.242;8.168;2022-07-04T09:32:47;22.40;99.90
21672;DHT22;10997;52.242;8.168;2022-07-04T09:37:53;22.60;99.90
21672;DHT22;10997;52.242;8.168;2022-07-04T09:42:56;22.50;99.90
21672;DHT22;10997;52.242;8.168;2022-07-04T09:47:58;22.00;99.90
21672;DHT22;10997;52.242;8.168;2022-07-04T09:53:02;22.10;99.90
21672;DHT22;10997;52.242;8.168;2022-07-04T09:58:08;22.60;99.90
21672;DHT22;10997;52.242;8.168;2022-07-04T10:08:19;22.20;99.90
21672;DHT22;10997;52.242;8.168;2022-07-04T10:13:19;22.60;99.90
21672;DHT22;10997;52.242;8.168;2022-07-04T10:18:22;23.00;99.90
21672;DHT22;10997;52.242;8.168;2022-07-04T10:23:24;22.70;99.90
21672;DHT22;10997;52.242;8.168;2022-07-04T10:28:31;22.90;99.90
21672;DHT22;10997;52.242;8.168;2022-07-04T10:33:34;22.80;99.90
21672;DHT22;10997;52.242;8.168;2022-07-04T10:38:49;23.10;99.90
21672;DHT22;10997;52.242;8.168;2022-07-04T10:43:58;23.80;99.90
21672;DHT22;10997;52.242;8.168;2022-07-04T10:49:07;24.30;99.90
21672;DHT22;10997;52.242;8.168;2022-07-04T10:54:36;24.20;98.70
21672;DHT22;10997;52.242;8.168;2022-07-04T10:59:40;23.50;99.10
21672;DHT22;10997;52.242;8.168;2022-07-04T11:04:46;23.50;97.40
21672;DHT22;10997;52.242;8.168;2022-07-04T11:15:12;23.80;96.40
21672;DHT22;10997;52.242;8.168;2022-07-04T11:20:13;24.10;96.20
21672;DHT22;10997;52.242;8.168;2022-07-04T11:25:14;24.10;95.00
21672;DHT22;10997;52.242;8.168;2022-07-04T11:30:23;24.20;94.10
21672;DHT22;10997;52.242;8.168;2022-07-04T11:35:24;24.50;93.90
21672;DHT22;10997;52.242;8.168;2022-07-04T11:40:45;24.30;91.80
21672;DHT22;10997;52.242;8.168;2022-07-04T11:46:11;23.40;92.30
21672;DHT22;10997;52.242;8.168;2022-07-04T11:51:17;23.90;94.40
21672;DHT22;10997;52.242;8.168;2022-07-04T11:56:17;24.30;92.90
21672;DHT22;10997;52.242;8.168;2022-07-04T12:01:27;25.00;92.50
21672;DHT22;10997;52.242;8.168;2022-07-04T12:06:28;25.00;90.20
21672;DHT22;10997;52.242;8.168;2022-07-04T12:11:56;24.00;91.90
21672;DHT22;10997;52.242;8.168;2022-07-04T12:22:10;24.20;94.00
21672;DHT22;10997;52.242;8.168;2022-07-04T12:27:18;25.00;91.90
21672;DHT22;10997;52.242;8.168;2022-07-04T12:32:19;24.50;91.00
21672;DHT22;10997;52.242;8.168;2022-07-04T12:37:20;23.80;90.70
21672;DHT22;10997;52.242;8.168;2022-07-04T12:42:21;23.80;91.50
21672;DHT22;10997;52.242;8.168;2022-07-04T12:47:21;23.70;91.90
21672;DHT22;10997;52.242;8.168;2022-07-04T12:52:27;23.50;93.30
21672;DHT22;10997;52.242;8.168;2022-07-04T12:57:27;23.60;92.10
21672;DHT22;10997;52.242;8.168;2022-07-04T13:02:28;23.90;92.30
21672;DHT22;10997;52.242;8.168;2022-07-04T13:07:29;24.30;92.40
21672;DHT22;10997;52.242;8.168;2022-07-04T13:12:30;25.10;92.70
21672;DHT22;10997;52.242;8.168;2022-07-04T13:17:30;25.40;91.10
21672;DHT22;10997;52.242;8.168;2022-07-04T13:22:31;25.00;89.80
21672;DHT22;10997;52.242;8.168;2022-07-04T13:27:32;24.50;90.30
21672;DHT22;10997;52.242;8.168;2022-07-04T13:32:35;24.70;88.70
21672;DHT22;10997;52.242;8.168;2022-07-04T13:37:36;24.20;89.50
21672;DHT22;10997;52.242;8.168;2022-07-04T13:42:38;23.80;90.50
21672;DHT22;10997;52.242;8.168;2022-07-04T13:48:08;24.10;93.00
21672;DHT22;10997;52.242;8.168;2022-07-04T13:53:10;24.80;91.90
21672;DHT22;10997;52.242;8.168;2022-07-04T13:58:11;24.90;90.30
21672;DHT22;10997;52.242;8.168;2022-07-04T14:03:12;24.60;91.00
21672;DHT22;10997;52.242;8.168;2022-07-04T14:08:13;24.60;89.30
21672;DHT22;10997;52.242;8.168;2022-07-04T14:13:14;25.20;90.90
21672;DHT22;10997;52.242;8.168;2022-07-04T14:18:15;24.60;90.80
21672;DHT22;10997;52.242;8.168;2022-07-04T14:23:16;24.30;91.60
21672;DHT22;10997;52.242;8.168;2022-07-04T14:28:37;24.50;92.30
21672;DHT22;10997;52.242;8.168;2022-07-04T14:33:38;24.40;93.10
21672;DHT22;10997;52.242;8.168;2022-07-04T14:38:39;24.60;92.60
21672;DHT22;10997;52.242;8.168;2022-07-04T14:43:41;24.70;91.90
21672;DHT22;10997;52.242;8.168;2022-07-04T14:48:42;25.20;92.10
21672;DHT22;10997;52.242;8.168;2022-07-04T14:53:43;25.10;91.30
21672;DHT22;10997;52.242;8.168;2022-07-04T14:58:43;25.20;91.70
21672;DHT22;10997;52.242;8.168;2022-07-04T15:03:44;25.10;92.00
21672;DHT22;10997;52.242;8.168;2022-07-04T15:08:45;24.40;92.30
21672;DHT22;10997;52.242;8.168;2022-07-04T15:13:45;24.30;92.30
21672;DHT22;10997;52.242;8.168;2022-07-04T15:18:46;24.90;92.70
21672;DHT22;10997;52.242;8.168;2022-07-04T15:23:47;25.10;92.80
21672;DHT22;10997;52.242;8.168;2022-07-04T15:29:06;25.30;92.30
21672;DHT22;10997;52.242;8.168;2022-07-04T15:34:07;25.30;91.80
21672;DHT22;10997;52.242;8.168;2022-07-04T15:39:11;25.30;91.50
21672;DHT22;10997;52.242;8.168;2022-07-04T15:44:12;24.70;91.80
21672;DHT22;10997;52.242;8.168;2022-07-04T15:49:13;24.80;91.10
21672;DHT22;10997;52.242;8.168;2022-07-04T15:54:14;24.90;90.80
21672;DHT22;10997;52.242;8.168;2022-07-04T15:59:15;25.00;90.70
21672;DHT22;10997;52.242;8.168;2022-07-04T16:04:16;25.20;90.80
21672;DHT22;10997;52.242;8.168;2022-07-04T16:09:17;25.40;89.10
21672;DHT22;10997;52.242;8.168;2022-07-04T16:14:18;25.40;88.70
21672;DHT22;10997;52.242;8.168;2022-07-04T16:19:20;24.80;88.50
21672;DHT22;10997;52.242;8.168;2022-07-04T16:24:21;24.40;87.30
21672;DHT22;10997;52.242;8.168;2022-07-04T16:29:22;24.70;87.10
21672;DHT22;10997;52.242;8.168;2022-07-04T16:34:22;24.80;87.30
21672;DHT22;10997;52.242;8.168;2022-07-04T16:39:23;24.60;87.60
21672;DHT22;10997;52.242;8.168;2022-07-04T16:44:24;24.80;88.80
21672;DHT22;10997;52.242;8.168;2022-07-04T16:49:25;25.00;89.30
21672;DHT22;10997;52.242;8.168;2022-07-04T16:54:26;24.70;90.40
21672;DHT22;10997;52.242;8.168;2022-07-04T16:59:27;24.30;89.40
21672;DHT22;10997;52.242;8.168;2022-07-04T17:04:27;24.50;90.30
21672;DHT22;10997;52.242;8.168;2022-07-04T17:09:28;24.50;89.10
21672;DHT22;10997;52.242;8.168;2022-07-04T17:14:29;24.20;88.70
21672;DHT22;10997;52.242;8.168;2022-07-04T17:19:29;24.00;90.10
21672;DHT22;10997;52.242;8.168;2022-07-04T17:24:30;24.00;90.30
21672;DHT22;10997;52.242;8.168;2022-07-04T17:29:31;24.10;89.90
21672;DHT22;10997;52.242;8.168;2022-07-04T17:34:32;24.00;90.20
21672;DHT22;10997;52.242;8.168;2022-07-04T17:39:33;24.10;90.50
21672;DHT22;10997;52.242;8.168;2022-07-04T17:44:34;24.00;91.10
21672;DHT22;10997;52.242;8.168;2022-07-04T17:49:34;23.80;91.00
21672;DHT22;10997;52.242;8.168;2022-07-04T17:54:38;23.70;91.20
21672;DHT22;10997;52.242;8.168;2022-07-04T17:59:38;23.40;91.80
21672;DHT22;10997;52.242;8.168;2022-07-04T18:04:39;23.10;91.50
21672;DHT22;10997;52.242;8.168;2022-07-04T18:09:43;22.60;91.20
21672;DHT22;10997;52.242;8.168;2022-07-04T18:14:43;22.50;91.90
21672;DHT22;10997;52.242;8.168;2022-07-04T18:19:44;22.50;91.90
21672;DHT22;10997;52.242;8.168;2022-07-04T18:24:45;22.70;92.10
21672;DHT22;10997;52.242;8.168;2022-07-04T18:29:45;23.10;92.10
21672;DHT22;10997;52.242;8.168;2022-07-04T18:34:47;23.00;91.70
21672;DHT22;10997;52.242;8.168;2022-07-04T18:39:48;22.90;92.40
21672;DHT22;10997;52.242;8.168;2022-07-04T18:44:49;22.50;93.10
21672;DHT22;10997;52.242;8.168;2022-07-04T18:49:50;22.20;94.20
21672;DHT22;10997;52.242;8.168;2022-07-04T18:54:51;22.30;94.40
21672;DHT22;10997;52.242;8.168;2022-07-04T18:59:52;22.40;93.90
21672;DHT22;10997;52.242;8.168;2022-07-04T19:04:54;22.40;93.90
21672;DHT22;10997;52.242;8.168;2022-07-04T19:09:54;22.40;94.50
21672;DHT22;10997;52.242;8.168;2022-07-04T19:14:55;22.30;94.60
21672;DHT22;10997;52.242;8.168;2022-07-04T19:19:56;22.30;94.40
21672;DHT22;10997;52.242;8.168;2022-07-04T19:24:57;21.80;94.20
21672;DHT22;10997;52.242;8.168;2022-07-04T19:29:59;21.50;94.00
21672;DHT22;10997;52.242;8.168;2022-07-04T19:35:04;21.40;93.80
21672;DHT22;10997;52.242;8.168;2022-07-04T19:40:06;20.90;95.00
21672;DHT22;10997;52.242;8.168;2022-07-04T19:45:08;20.50;95.70
21672;DHT22;10997;52.242;8.168;2022-07-04T19:50:09;20.30;96.00
21672;DHT22;10997;52.242;8.168;2022-07-04T19:55:11;20.20;96.20
21672;DHT22;10997;52.242;8.168;2022-07-04T20:00:14;20.00;96.30
21672;DHT22;10997;52.242;8.168;2022-07-04T20:05:15;19.80;96.60
21672;DHT22;10997;52.242;8.168;2022-07-04T20:10:16;19.60;96.80
21672;DHT22;10997;52.242;8.168;2022-07-04T20:15:17;19.40;97.10
21672;DHT22;10997;52.242;8.168;2022-07-04T20:20:17;19.20;97.40
21672;DHT22;10997;52.242;8.168;2022-07-04T20:25:18;19.10;97.60
21672;DHT22;10997;52.242;8.168;2022-07-04T20:30:19;19.00;97.70
21672;DHT22;10997;52.242;8.168;2022-07-04T20:35:20;19.00;98.10
21672;DHT22;10997;52.242;8.168;2022-07-04T20:40:21;19.00;98.30
21672;DHT22;10997;52.242;8.168;2022-07-04T20:45:22;18.90;98.60
21672;DHT22;10997;52.242;8.168;2022-07-04T20:50:23;18.80;98.70
21672;DHT22;10997;52.242;8.168;2022-07-04T20:55:24;18.70;98.80
21672;DHT22;10997;52.242;8.168;2022-07-04T21:00:25;18.40;99.70
21672;DHT22;10997;52.242;8.168;2022-07-04T21:05:25;18.30;99.90
21672;DHT22;10997;52.242;8.168;2022-07-04T21:10:26;18.10;99.90
21672;DHT22;10997;52.242;8.168;2022-07-04T21:15:27;17.90;99.90
21672;DHT22;10997;52.242;8.168;2022-07-04T21:20:28;17.80;99.90
21672;DHT22;10997;52.242;8.168;2022-07-04T21:25:29;17.80;99.90
21672;DHT22;10997;52.242;8.168;2022-07-04T21:30:30;17.60;99.90
21672;DHT22;10997;52.242;8.168;2022-07-04T21:35:31;17.20;99.90
21672;DHT22;10997;52.242;8.168;2022-07-04T21:40:32;17.00;99.90
21672;DHT22;10997;52.242;8.168;2022-07-04T21:45:32;16.80;99.90
21672;DHT22;10997;52.242;8.168;2022-07-04T21:50:33;16.80;99.90
21672;DHT22;10997;52.242;8.168;2022-07-04T21:55:34;16.70;99.90
21672;DHT22;10997;52.242;8.168;2022-07-04T22:00:35;16.60;99.90
21672;DHT22;10997;52.242;8.168;2022-07-04T22:05:36;16.50;99.90
21672;DHT22;10997;52.242;8.168;2022-07-04T22:10:37;16.40;99.90
21672;DHT22;10997;52.242;8.168;2022-07-04T22:15:37;16.20;99.90
21672;DHT22;10997;52.242;8.168;2022-07-04T22:20:38;16.10;99.90
21672;DHT22;10997;52.242;8.168;2022-07-04T22:25:39;16.10;99.90
21672;DHT22;10997;52.242;8.168;2022-07-04T22:30:39;16.00;99.90
21672;DHT22;10997;52.242;8.168;2022-07-04T22:35:40;15.90;99.90
21672;DHT22;10997;52.242;8.168;2022-07-04T22:40:41;15.70;99.90
21672;DHT22;10997;52.242;8.168;2022-07-04T22:45:41;15.70;99.90
21672;DHT22;10997;52.242;8.168;2022-07-04T22:50:42;15.50;99.90
21672;DHT22;10997;52.242;8.168;2022-07-04T22:56:02;15.40;99.90
21672;DHT22;10997;52.242;8.168;2022-07-04T23:01:02;15.30;99.90
21672;DHT22;10997;52.242;8.168;2022-07-04T23:06:03;15.20;99.90
21672;DHT22;10997;52.242;8.168;2022-07-04T23:11:04;14.90;99.90
21672;DHT22;10997;52.242;8.168;2022-07-04T23:16:05;14.80;99.90
21672;DHT22;10997;52.242;8.168;2022-07-04T23:21:06;14.80;99.90
21672;DHT22;10997;52.242;8.168;2022-07-04T23:26:07;14.70;99.90
21672;DHT22;10997;52.242;8.168;2022-07-04T23:31:09;14.70;99.90
21672;DHT22;10997;52.242;8.168;2022-07-04T23:36:10;14.60;99.90
21672;DHT22;10997;52.242;8.168;2022-07-04T23:41:11;14.50;99.90
21672;DHT22;10997;52.242;8.168;2022-07-04T23:46:11;14.50;99.90
21672;DHT22;10997;52.242;8.168;2022-07-04T23:51:12;14.40;99.90
21672;DHT22;10997;52.242;8.168;2022-07-04T23:56:13;14.50;99.90
